sensor_id;sensor_type;location;lat;lon;timestamp;P1;durP1;ratioP1;P2;durP2;ratioP2
43124;SDS011;49182;50.788;7.318;2023-11-21T00:00:51;5.13;;;1.98;;
43124;SDS011;49182;50.788;7.318;2023-11-21T00:05:53;3.90;;;1.88;;
43124;SDS011;49182;50.788;7.318;2023-11-21T00:10:55;5.05;;;2.30;;
43124;SDS011;49182;50.788;7.318;2023-11-21T00:15:58;5.55;;;3.45;;
43124;SDS011;49182;50.788;7.318;2023-11-21T00:21:00;4.28;;;2.40;;
43124;SDS011;49182;50.788;7.318;2023-11-21T00:26:02;5.68;;;2.50;;
43124;SDS011;49182;50.788;7.318;2023-11-21T00:31:05;4.88;;;2.20;;
43124;SDS011;49182;50.788;7.318;2023-11-21T00:36:07;6.13;;;3.10;;
43124;SDS011;49182;50.788;7.318;2023-11-21T00:41:10;4.50;;;2.55;;
43124;SDS011;49182;50.788;7.318;2023-11-21T00:46:13;4.25;;;2.25;;
43124;SDS011;49182;50.788;7.318;2023-11-21T00:51:15;4.78;;;2.35;;
43124;SDS011;49182;50.788;7.318;2023-11-21T00:56:18;5.45;;;2.97;;
43124;SDS011;49182;50.788;7.318;2023-11-21T01:01:21;4.43;;;2.90;;
43124;SDS011;49182;50.788;7.318;2023-11-21T01:06:23;4.25;;;3.40;;
43124;SDS011;49182;50.788;7.318;2023-11-21T01:11:25;7.95;;;2.88;;
43124;SDS011;49182;50.788;7.318;2023-11-21T01:16:28;7.95;;;3.45;;
43124;SDS011;49182;50.788;7.318;2023-11-21T01:21:30;8.00;;;3.70;;
43124;SDS011;49182;50.788;7.318;2023-11-21T01:26:32;6.93;;;3.17;;
43124;SDS011;49182;50.788;7.318;2023-11-21T01:31:35;7.35;;;3.65;;
43124;SDS011;49182;50.788;7.318;2023-11-21T01:36:36;6.10;;;3.22;;
43124;SDS011;49182;50.788;7.318;2023-11-21T01:41:39;4.85;;;3.33;;
43124;SDS011;49182;50.788;7.318;2023-11-21T01:46:42;5.65;;;3.58;;
43124;SDS011;49182;50.788;7.318;2023-11-21T01:51:45;4.97;;;2.88;;
43124;SDS011;49182;50.788;7.318;2023-11-21T01:56:49;8.05;;;2.72;;
43124;SDS011;49182;50.788;7.318;2023-11-21T02:01:52;5.78;;;3.65;;
43124;SDS011;49182;50.788;7.318;2023-11-21T02:06:54;4.93;;;3.28;;
43124;SDS011;49182;50.788;7.318;2023-11-21T02:11:55;5.85;;;2.95;;
43124;SDS011;49182;50.788;7.318;2023-11-21T02:17:00;6.18;;;3.25;;
43124;SDS011;49182;50.788;7.318;2023-11-21T02:22:02;5.53;;;3.03;;
43124;SDS011;49182;50.788;7.318;2023-11-21T02:27:06;5.50;;;3.47;;
43124;SDS011;49182;50.788;7.318;2023-11-21T02:32:08;9.15;;;2.97;;
43124;SDS011;49182;50.788;7.318;2023-11-21T02:37:10;4.63;;;2.83;;
43124;SDS011;49182;50.788;7.318;2023-11-21T02:42:14;7.97;;;4.15;;
43124;SDS011;49182;50.788;7.318;2023-11-21T02:47:16;10.10;;;4.00;;
43124;SDS011;49182;50.788;7.318;2023-11-21T02:52:18;6.70;;;3.35;;
43124;SDS011;49182;50.788;7.318;2023-11-21T02:57:22;6.25;;;3.80;;
43124;SDS011;49182;50.788;7.318;2023-11-21T03:02:24;6.18;;;3.60;;
43124;SDS011;49182;50.788;7.318;2023-11-21T03:07:26;5.80;;;3.20;;
43124;SDS011;49182;50.788;7.318;2023-11-21T03:12:29;13.23;;;3.30;;
43124;SDS011;49182;50.788;7.318;2023-11-21T03:17:31;7.32;;;3.38;;
43124;SDS011;49182;50.788;7.318;2023-11-21T03:22:32;5.78;;;3.78;;
43124;SDS011;49182;50.788;7.318;2023-11-21T03:27:36;8.80;;;3.10;;
43124;SDS011;49182;50.788;7.318;2023-11-21T03:32:38;7.80;;;3.03;;
43124;SDS011;49182;50.788;7.318;2023-11-21T03:37:39;6.97;;;3.35;;
43124;SDS011;49182;50.788;7.318;2023-11-21T03:42:43;5.78;;;3.20;;
43124;SDS011;49182;50.788;7.318;2023-11-21T03:47:45;6.22;;;3.90;;
43124;SDS011;49182;50.788;7.318;2023-11-21T03:52:46;4.93;;;2.80;;
43124;SDS011;49182;50.788;7.318;2023-11-21T03:57:50;5.07;;;3.15;;
43124;SDS011;49182;50.788;7.318;2023-11-21T04:02:53;5.30;;;2.90;;
43124;SDS011;49182;50.788;7.318;2023-11-21T04:07:55;8.98;;;3.70;;
43124;SDS011;49182;50.788;7.318;2023-11-21T04:12:58;8.00;;;3.35;;
43124;SDS011;49182;50.788;7.318;2023-11-21T04:18:00;7.28;;;3.78;;
43124;SDS011;49182;50.788;7.318;2023-11-21T04:23:02;9.50;;;3.15;;
43124;SDS011;49182;50.788;7.318;2023-11-21T04:28:05;6.55;;;3.63;;
43124;SDS011;49182;50.788;7.318;2023-11-21T04:33:07;9.45;;;4.07;;
43124;SDS011;49182;50.788;7.318;2023-11-21T04:38:09;6.72;;;2.95;;
43124;SDS011;49182;50.788;7.318;2023-11-21T04:43:12;7.75;;;3.22;;
43124;SDS011;49182;50.788;7.318;2023-11-21T04:48:14;6.07;;;3.63;;
43124;SDS011;49182;50.788;7.318;2023-11-21T04:53:16;6.40;;;3.25;;
43124;SDS011;49182;50.788;7.318;2023-11-21T04:58:19;6.28;;;3.35;;
43124;SDS011;49182;50.788;7.318;2023-11-21T05:03:20;7.78;;;4.03;;
43124;SDS011;49182;50.788;7.318;2023-11-21T05:08:22;6.90;;;3.38;;
43124;SDS011;49182;50.788;7.318;2023-11-21T05:13:25;8.93;;;2.70;;
43124;SDS011;49182;50.788;7.318;2023-11-21T05:18:27;5.03;;;3.20;;
43124;SDS011;49182;50.788;7.318;2023-11-21T05:23:29;6.22;;;2.92;;
43124;SDS011;49182;50.788;7.318;2023-11-21T05:28:32;7.50;;;4.00;;
43124;SDS011;49182;50.788;7.318;2023-11-21T05:33:33;6.35;;;3.38;;
43124;SDS011;49182;50.788;7.318;2023-11-21T05:38:35;6.38;;;2.83;;
43124;SDS011;49182;50.788;7.318;2023-11-21T05:43:39;10.98;;;3.13;;
43124;SDS011;49182;50.788;7.318;2023-11-21T05:48:41;5.80;;;3.40;;
43124;SDS011;49182;50.788;7.318;2023-11-21T05:53:42;5.05;;;2.88;;
43124;SDS011;49182;50.788;7.318;2023-11-21T05:58:45;5.72;;;3.83;;
43124;SDS011;49182;50.788;7.318;2023-11-21T06:03:47;6.38;;;3.42;;
43124;SDS011;49182;50.788;7.318;2023-11-21T06:08:49;5.53;;;3.08;;
43124;SDS011;49182;50.788;7.318;2023-11-21T06:13:53;7.88;;;4.35;;
43124;SDS011;49182;50.788;7.318;2023-11-21T06:18:54;6.70;;;3.28;;
43124;SDS011;49182;50.788;7.318;2023-11-21T06:23:56;9.20;;;3.55;;
43124;SDS011;49182;50.788;7.318;2023-11-21T06:28:59;6.93;;;3.72;;
43124;SDS011;49182;50.788;7.318;2023-11-21T06:34:01;6.60;;;3.40;;
43124;SDS011;49182;50.788;7.318;2023-11-21T06:39:03;5.95;;;3.78;;
43124;SDS011;49182;50.788;7.318;2023-11-21T06:44:07;9.90;;;4.65;;
43124;SDS011;49182;50.788;7.318;2023-11-21T06:49:08;7.07;;;3.47;;
43124;SDS011;49182;50.788;7.318;2023-11-21T06:54:10;7.88;;;4.00;;
43124;SDS011;49182;50.788;7.318;2023-11-21T06:59:15;7.18;;;3.53;;
43124;SDS011;49182;50.788;7.318;2023-11-21T07:04:17;9.30;;;4.28;;
43124;SDS011;49182;50.788;7.318;2023-11-21T07:09:18;7.47;;;4.45;;
43124;SDS011;49182;50.788;7.318;2023-11-21T07:14:21;7.18;;;3.75;;
43124;SDS011;49182;50.788;7.318;2023-11-21T07:19:23;8.15;;;4.07;;
43124;SDS011;49182;50.788;7.318;2023-11-21T07:24:25;7.05;;;4.07;;
43124;SDS011;49182;50.788;7.318;2023-11-21T07:29:29;7.53;;;4.20;;
43124;SDS011;49182;50.788;7.318;2023-11-21T07:34:31;14.07;;;4.40;;
43124;SDS011;49182;50.788;7.318;2023-11-21T07:39:34;8.45;;;4.55;;
43124;SDS011;49182;50.788;7.318;2023-11-21T07:44:37;6.75;;;3.92;;
43124;SDS011;49182;50.788;7.318;2023-11-21T07:49:39;13.38;;;5.40;;
43124;SDS011;49182;50.788;7.318;2023-11-21T07:54:40;9.05;;;5.45;;
43124;SDS011;49182;50.788;7.318;2023-11-21T07:59:44;10.02;;;4.97;;
43124;SDS011;49182;50.788;7.318;2023-11-21T08:04:45;13.00;;;5.88;;
43124;SDS011;49182;50.788;7.318;2023-11-21T08:09:47;15.05;;;6.63;;
43124;SDS011;49182;50.788;7.318;2023-11-21T08:14:50;15.68;;;7.45;;
43124;SDS011;49182;50.788;7.318;2023-11-21T08:19:52;13.85;;;8.13;;
43124;SDS011;49182;50.788;7.318;2023-11-21T08:24:54;14.43;;;7.05;;
43124;SDS011;49182;50.788;7.318;2023-11-21T08:29:57;15.35;;;8.30;;
43124;SDS011;49182;50.788;7.318;2023-11-21T08:34:59;18.55;;;8.07;;
43124;SDS011;49182;50.788;7.318;2023-11-21T08:40:01;18.90;;;8.13;;
43124;SDS011;49182;50.788;7.318;2023-11-21T08:45:06;18.55;;;8.18;;
43124;SDS011;49182;50.788;7.318;2023-11-21T08:50:09;22.13;;;10.38;;
43124;SDS011;49182;50.788;7.318;2023-11-21T08:55:11;16.48;;;8.55;;
43124;SDS011;49182;50.788;7.318;2023-11-21T09:00:14;22.15;;;9.10;;
43124;SDS011;49182;50.788;7.318;2023-11-21T09:05:16;22.15;;;8.75;;
43124;SDS011;49182;50.788;7.318;2023-11-21T09:10:18;18.52;;;9.23;;
43124;SDS011;49182;50.788;7.318;2023-11-21T09:15:21;21.98;;;9.15;;
43124;SDS011;49182;50.788;7.318;2023-11-21T09:20:23;20.17;;;8.60;;
43124;SDS011;49182;50.788;7.318;2023-11-21T09:25:25;20.60;;;9.30;;
43124;SDS011;49182;50.788;7.318;2023-11-21T09:30:28;22.23;;;9.27;;
43124;SDS011;49182;50.788;7.318;2023-11-21T09:35:30;18.70;;;8.70;;
43124;SDS011;49182;50.788;7.318;2023-11-21T09:40:32;20.13;;;9.73;;
43124;SDS011;49182;50.788;7.318;2023-11-21T09:45:36;22.40;;;7.90;;
43124;SDS011;49182;50.788;7.318;2023-11-21T09:50:41;19.95;;;9.68;;
43124;SDS011;49182;50.788;7.318;2023-11-21T09:55:44;20.60;;;9.55;;
43124;SDS011;49182;50.788;7.318;2023-11-21T10:00:50;17.33;;;8.45;;
43124;SDS011;49182;50.788;7.318;2023-11-21T10:05:56;20.35;;;9.65;;
43124;SDS011;49182;50.788;7.318;2023-11-21T10:10:58;20.23;;;9.70;;
43124;SDS011;49182;50.788;7.318;2023-11-21T10:16:01;23.75;;;9.88;;
43124;SDS011;49182;50.788;7.318;2023-11-21T10:21:04;19.00;;;8.68;;
43124;SDS011;49182;50.788;7.318;2023-11-21T10:26:06;20.13;;;9.23;;
43124;SDS011;49182;50.788;7.318;2023-11-21T10:31:28;24.42;;;10.18;;
43124;SDS011;49182;50.788;7.318;2023-11-21T10:36:30;24.20;;;9.93;;
43124;SDS011;49182;50.788;7.318;2023-11-21T10:41:33;16.75;;;8.63;;
43124;SDS011;49182;50.788;7.318;2023-11-21T10:51:38;24.52;;;10.75;;
43124;SDS011;49182;50.788;7.318;2023-11-21T10:56:45;25.10;;;9.70;;
43124;SDS011;49182;50.788;7.318;2023-11-21T11:01:51;24.45;;;9.73;;
43124;SDS011;49182;50.788;7.318;2023-11-21T11:06:54;21.67;;;10.57;;
43124;SDS011;49182;50.788;7.318;2023-11-21T11:11:58;23.38;;;10.18;;
43124;SDS011;49182;50.788;7.318;2023-11-21T11:17:01;21.42;;;10.05;;
43124;SDS011;49182;50.788;7.318;2023-11-21T11:22:06;24.00;;;10.70;;
43124;SDS011;49182;50.788;7.318;2023-11-21T11:27:19;18.30;;;10.40;;
43124;SDS011;49182;50.788;7.318;2023-11-21T11:32:33;15.93;;;8.60;;
43124;SDS011;49182;50.788;7.318;2023-11-21T11:37:43;20.95;;;9.00;;
43124;SDS011;49182;50.788;7.318;2023-11-21T11:42:55;19.20;;;8.82;;
43124;SDS011;49182;50.788;7.318;2023-11-21T11:48:00;15.98;;;8.35;;
43124;SDS011;49182;50.788;7.318;2023-11-21T11:53:12;21.83;;;8.75;;
43124;SDS011;49182;50.788;7.318;2023-11-21T11:58:14;20.98;;;10.02;;
43124;SDS011;49182;50.788;7.318;2023-11-21T12:03:17;19.13;;;8.43;;
43124;SDS011;49182;50.788;7.318;2023-11-21T12:08:20;18.52;;;9.68;;
43124;SDS011;49182;50.788;7.318;2023-11-21T12:13:22;21.10;;;9.73;;
43124;SDS011;49182;50.788;7.318;2023-11-21T12:18:25;22.00;;;9.93;;
43124;SDS011;49182;50.788;7.318;2023-11-21T12:23:27;20.13;;;9.25;;
43124;SDS011;49182;50.788;7.318;2023-11-21T12:28:29;22.88;;;9.23;;
43124;SDS011;49182;50.788;7.318;2023-11-21T12:33:32;20.35;;;11.73;;
43124;SDS011;49182;50.788;7.318;2023-11-21T12:38:34;29.17;;;13.20;;
43124;SDS011;49182;50.788;7.318;2023-11-21T12:43:36;25.88;;;10.88;;
43124;SDS011;49182;50.788;7.318;2023-11-21T12:48:39;23.73;;;11.52;;
43124;SDS011;49182;50.788;7.318;2023-11-21T12:53:42;27.23;;;11.23;;
43124;SDS011;49182;50.788;7.318;2023-11-21T12:58:44;24.98;;;9.93;;
43124;SDS011;49182;50.788;7.318;2023-11-21T13:03:48;21.88;;;9.52;;
43124;SDS011;49182;50.788;7.318;2023-11-21T13:08:51;21.40;;;10.00;;
43124;SDS011;49182;50.788;7.318;2023-11-21T13:13:53;25.63;;;9.82;;
43124;SDS011;49182;50.788;7.318;2023-11-21T13:18:56;18.90;;;9.63;;
43124;SDS011;49182;50.788;7.318;2023-11-21T13:23:58;22.15;;;10.05;;
43124;SDS011;49182;50.788;7.318;2023-11-21T13:28:59;21.58;;;9.15;;
43124;SDS011;49182;50.788;7.318;2023-11-21T13:34:03;21.40;;;9.55;;
43124;SDS011;49182;50.788;7.318;2023-11-21T13:39:04;16.30;;;8.75;;
43124;SDS011;49182;50.788;7.318;2023-11-21T13:44:06;22.02;;;9.98;;
43124;SDS011;49182;50.788;7.318;2023-11-21T13:49:10;20.73;;;9.93;;
43124;SDS011;49182;50.788;7.318;2023-11-21T13:54:12;20.48;;;9.65;;
43124;SDS011;49182;50.788;7.318;2023-11-21T13:59:13;25.77;;;9.35;;
43124;SDS011;49182;50.788;7.318;2023-11-21T14:04:17;18.05;;;10.23;;
43124;SDS011;49182;50.788;7.318;2023-11-21T14:09:19;20.08;;;10.05;;
43124;SDS011;49182;50.788;7.318;2023-11-21T14:14:23;17.77;;;10.13;;
43124;SDS011;49182;50.788;7.318;2023-11-21T14:19:27;23.50;;;10.98;;
43124;SDS011;49182;50.788;7.318;2023-11-21T14:24:29;28.48;;;12.63;;
43124;SDS011;49182;50.788;7.318;2023-11-21T14:29:31;28.23;;;11.35;;
43124;SDS011;49182;50.788;7.318;2023-11-21T14:34:34;30.02;;;10.93;;
43124;SDS011;49182;50.788;7.318;2023-11-21T14:39:35;23.38;;;9.85;;
43124;SDS011;49182;50.788;7.318;2023-11-21T14:44:37;32.83;;;13.98;;
43124;SDS011;49182;50.788;7.318;2023-11-21T14:49:40;20.50;;;9.77;;
43124;SDS011;49182;50.788;7.318;2023-11-21T14:54:42;30.30;;;11.55;;
43124;SDS011;49182;50.788;7.318;2023-11-21T14:59:44;24.92;;;11.10;;
43124;SDS011;49182;50.788;7.318;2023-11-21T15:04:49;20.65;;;8.80;;
43124;SDS011;49182;50.788;7.318;2023-11-21T15:09:51;25.30;;;9.75;;
43124;SDS011;49182;50.788;7.318;2023-11-21T15:14:52;30.15;;;12.27;;
43124;SDS011;49182;50.788;7.318;2023-11-21T15:19:56;31.42;;;11.52;;
43124;SDS011;49182;50.788;7.318;2023-11-21T15:24:58;23.85;;;9.20;;
43124;SDS011;49182;50.788;7.318;2023-11-21T15:29:59;20.48;;;8.50;;
43124;SDS011;49182;50.788;7.318;2023-11-21T15:35:03;24.67;;;10.32;;
43124;SDS011;49182;50.788;7.318;2023-11-21T15:40:05;20.65;;;8.65;;
43124;SDS011;49182;50.788;7.318;2023-11-21T15:45:08;22.00;;;9.63;;
43124;SDS011;49182;50.788;7.318;2023-11-21T15:50:11;24.42;;;10.30;;
43124;SDS011;49182;50.788;7.318;2023-11-21T15:55:13;24.88;;;12.13;;
43124;SDS011;49182;50.788;7.318;2023-11-21T16:00:15;30.50;;;11.50;;
43124;SDS011;49182;50.788;7.318;2023-11-21T16:05:19;25.55;;;11.18;;
43124;SDS011;49182;50.788;7.318;2023-11-21T16:10:20;30.02;;;11.93;;
43124;SDS011;49182;50.788;7.318;2023-11-21T16:15:22;26.92;;;11.60;;
43124;SDS011;49182;50.788;7.318;2023-11-21T16:20:25;23.30;;;11.15;;
43124;SDS011;49182;50.788;7.318;2023-11-21T16:25:27;21.80;;;9.80;;
43124;SDS011;49182;50.788;7.318;2023-11-21T16:30:29;28.23;;;11.05;;
43124;SDS011;49182;50.788;7.318;2023-11-21T16:35:32;26.45;;;10.82;;
43124;SDS011;49182;50.788;7.318;2023-11-21T16:40:34;26.90;;;10.02;;
43124;SDS011;49182;50.788;7.318;2023-11-21T16:45:36;25.35;;;8.93;;
43124;SDS011;49182;50.788;7.318;2023-11-21T16:50:39;21.27;;;10.07;;
43124;SDS011;49182;50.788;7.318;2023-11-21T16:55:44;18.15;;;8.15;;
43124;SDS011;49182;50.788;7.318;2023-11-21T17:00:47;18.13;;;8.23;;
43124;SDS011;49182;50.788;7.318;2023-11-21T17:05:50;27.13;;;10.25;;
43124;SDS011;49182;50.788;7.318;2023-11-21T17:10:52;16.52;;;6.45;;
43124;SDS011;49182;50.788;7.318;2023-11-21T17:15:54;18.60;;;6.68;;
43124;SDS011;49182;50.788;7.318;2023-11-21T17:20:57;15.65;;;7.40;;
43124;SDS011;49182;50.788;7.318;2023-11-21T17:25:58;11.02;;;5.20;;
43124;SDS011;49182;50.788;7.318;2023-11-21T17:31:00;11.18;;;4.57;;
43124;SDS011;49182;50.788;7.318;2023-11-21T17:36:04;10.23;;;4.65;;
43124;SDS011;49182;50.788;7.318;2023-11-21T17:41:10;8.80;;;4.03;;
43124;SDS011;49182;50.788;7.318;2023-11-21T17:46:17;8.18;;;4.63;;
43124;SDS011;49182;50.788;7.318;2023-11-21T17:51:21;9.20;;;4.25;;
43124;SDS011;49182;50.788;7.318;2023-11-21T17:56:23;7.93;;;4.38;;
43124;SDS011;49182;50.788;7.318;2023-11-21T18:01:25;4.97;;;3.28;;
43124;SDS011;49182;50.788;7.318;2023-11-21T18:06:28;6.15;;;3.08;;
43124;SDS011;49182;50.788;7.318;2023-11-21T18:11:30;4.72;;;2.40;;
43124;SDS011;49182;50.788;7.318;2023-11-21T18:16:32;7.82;;;2.80;;
43124;SDS011;49182;50.788;7.318;2023-11-21T18:21:35;6.32;;;3.30;;
43124;SDS011;49182;50.788;7.318;2023-11-21T18:26:39;4.55;;;2.65;;
43124;SDS011;49182;50.788;7.318;2023-11-21T18:31:41;5.90;;;3.08;;
43124;SDS011;49182;50.788;7.318;2023-11-21T18:36:44;7.90;;;3.15;;
43124;SDS011;49182;50.788;7.318;2023-11-21T18:41:46;7.40;;;3.25;;
43124;SDS011;49182;50.788;7.318;2023-11-21T18:46:48;6.60;;;3.08;;
43124;SDS011;49182;50.788;7.318;2023-11-21T18:51:51;5.22;;;3.08;;
43124;SDS011;49182;50.788;7.318;2023-11-21T18:56:53;5.72;;;3.35;;
43124;SDS011;49182;50.788;7.318;2023-11-21T19:01:55;6.68;;;2.85;;
43124;SDS011;49182;50.788;7.318;2023-11-21T19:06:58;5.35;;;2.85;;
43124;SDS011;49182;50.788;7.318;2023-11-21T19:12:00;5.88;;;2.58;;
43124;SDS011;49182;50.788;7.318;2023-11-21T19:17:02;5.10;;;2.38;;
43124;SDS011;49182;50.788;7.318;2023-11-21T19:22:05;5.45;;;3.13;;
43124;SDS011;49182;50.788;7.318;2023-11-21T19:27:07;3.97;;;2.60;;
43124;SDS011;49182;50.788;7.318;2023-11-21T19:32:08;4.47;;;2.10;;
43124;SDS011;49182;50.788;7.318;2023-11-21T19:37:11;4.82;;;2.30;;
43124;SDS011;49182;50.788;7.318;2023-11-21T19:42:13;4.65;;;2.58;;
43124;SDS011;49182;50.788;7.318;2023-11-21T19:47:15;4.60;;;2.20;;
43124;SDS011;49182;50.788;7.318;2023-11-21T19:52:18;5.13;;;2.78;;
43124;SDS011;49182;50.788;7.318;2023-11-21T19:57:20;4.25;;;2.42;;
43124;SDS011;49182;50.788;7.318;2023-11-21T20:02:22;5.18;;;2.40;;
43124;SDS011;49182;50.788;7.318;2023-11-21T20:07:26;3.78;;;2.25;;
43124;SDS011;49182;50.788;7.318;2023-11-21T20:12:28;3.63;;;2.28;;
43124;SDS011;49182;50.788;7.318;2023-11-21T20:17:30;4.20;;;2.25;;
43124;SDS011;49182;50.788;7.318;2023-11-21T20:22:33;4.25;;;2.38;;
43124;SDS011;49182;50.788;7.318;2023-11-21T20:27:35;5.15;;;2.65;;
43124;SDS011;49182;50.788;7.318;2023-11-21T20:32:36;5.43;;;3.00;;
43124;SDS011;49182;50.788;7.318;2023-11-21T20:37:39;7.03;;;3.90;;
43124;SDS011;49182;50.788;7.318;2023-11-21T20:42:41;5.95;;;2.85;;
43124;SDS011;49182;50.788;7.318;2023-11-21T20:47:43;8.55;;;3.60;;
43124;SDS011;49182;50.788;7.318;2023-11-21T20:52:47;5.78;;;2.75;;
43124;SDS011;49182;50.788;7.318;2023-11-21T20:57:49;5.68;;;2.97;;
43124;SDS011;49182;50.788;7.318;2023-11-21T21:02:51;4.68;;;2.83;;
43124;SDS011;49182;50.788;7.318;2023-11-21T21:07:54;5.70;;;3.30;;
43124;SDS011;49182;50.788;7.318;2023-11-21T21:12:56;4.85;;;3.10;;
43124;SDS011;49182;50.788;7.318;2023-11-21T21:17:57;5.15;;;2.80;;
43124;SDS011;49182;50.788;7.318;2023-11-21T21:23:01;4.05;;;2.20;;
43124;SDS011;49182;50.788;7.318;2023-11-21T21:28:03;3.60;;;2.33;;
43124;SDS011;49182;50.788;7.318;2023-11-21T21:33:05;5.57;;;2.55;;
43124;SDS011;49182;50.788;7.318;2023-11-21T21:38:08;6.20;;;2.50;;
43124;SDS011;49182;50.788;7.318;2023-11-21T21:43:09;7.10;;;3.28;;
43124;SDS011;49182;50.788;7.318;2023-11-21T21:48:11;7.32;;;3.38;;
43124;SDS011;49182;50.788;7.318;2023-11-21T21:53:14;9.55;;;3.22;;
43124;SDS011;49182;50.788;7.318;2023-11-21T21:58:16;6.22;;;3.35;;
43124;SDS011;49182;50.788;7.318;2023-11-21T22:03:18;7.35;;;3.25;;
43124;SDS011;49182;50.788;7.318;2023-11-21T22:08:21;5.63;;;3.53;;
43124;SDS011;49182;50.788;7.318;2023-11-21T22:18:24;4.82;;;2.53;;
43124;SDS011;49182;50.788;7.318;2023-11-21T22:23:28;4.38;;;1.83;;
43124;SDS011;49182;50.788;7.318;2023-11-21T22:33:32;4.65;;;2.25;;
43124;SDS011;49182;50.788;7.318;2023-11-21T22:38:35;4.30;;;2.80;;
43124;SDS011;49182;50.788;7.318;2023-11-21T22:48:40;3.58;;;2.38;;
43124;SDS011;49182;50.788;7.318;2023-11-21T22:53:43;3.72;;;2.40;;
43124;SDS011;49182;50.788;7.318;2023-11-21T22:58:46;4.57;;;2.03;;
43124;SDS011;49182;50.788;7.318;2023-11-21T23:03:47;6.07;;;2.00;;
43124;SDS011;49182;50.788;7.318;2023-11-21T23:08:51;10.57;;;3.72;;
43124;SDS011;49182;50.788;7.318;2023-11-21T23:13:52;4.82;;;3.13;;
43124;SDS011;49182;50.788;7.318;2023-11-21T23:18:54;4.70;;;1.83;;
43124;SDS011;49182;50.788;7.318;2023-11-21T23:23:57;4.60;;;1.83;;
43124;SDS011;49182;50.788;7.318;2023-11-21T23:28:59;3.95;;;2.58;;
43124;SDS011;49182;50.788;7.318;2023-11-21T23:39:06;4.00;;;2.17;;
43124;SDS011;49182;50.788;7.318;2023-11-21T23:44:07;6.20;;;3.03;;
43124;SDS011;49182;50.788;7.318;2023-11-21T23:49:09;7.80;;;3.35;;
43124;SDS011;49182;50.788;7.318;2023-11-21T23:54:12;7.28;;;3.20;;
43124;SDS011;49182;50.788;7.318;2023-11-21T23:59:14;4.90;;;2.42;;
